Terminal Aerodrome Forecast
Issued by NWS

Home | Current Version | Previous Version | Text Only | Print | Product List | Glossary On
Versions: 1 2 3 4 5 6 7 8 9 10 11 12 13 14 15 16 17 18 19 20 21 22
934
FTUS44 KTSA 161721
TAFFYV
TAF
KFYV 161721Z 1618/1718 18012KT P6SM VCSH OVC012
     FM161900 19012G18KT P6SM BKN015
     FM162100 21012G18KT P6SM SCT025 SCT250
     FM170000 24010KT P6SM BKN025
     FM170800 27006KT 5SM BR OVC015=

USA.gov is the U.S. government's official web portal to all federal, state and local government web resources and services.